Time;durP1;ratioP1;P1;durP2;ratioP2;P2;SDS_P1;SDS_P2;PMS_P1;PMS_P2;Temp;Humidity;BMP_temperature;BMP_pressure;BME280_temperature;BME280_humidity;BME280_pressure;Samples;Min_cycle;Max_cycle;Signal;HPM_P1;HPM_P2
2021/08/20 00:00:58;;;;;;;4.68;1.95;;;;;;;15.79;78.98;101267.25;4992923;28;20042;-75
2021/08/20 00:03:24;;;;;;;5.50;3.38;;;;;;;15.76;79.41;101263.16;4988389;28;20038;-74
2021/08/20 00:05:49;;;;;;;4.75;2.60;;;;;;;15.75;79.13;101262.34;4995481;28;20034;-74
2021/08/20 00:08:15;;;;;;;5.25;3.15;;;;;;;15.73;79.35;101260.91;4988375;28;20036;-74
2021/08/20 00:10:40;;;;;;;4.05;2.63;;;;;;;15.70;79.25;101256.81;4984647;28;20475;-75
2021/08/20 00:13:06;;;;;;;3.33;2.42;;;;;;;15.69;79.54;101259.59;4998121;28;20468;-74
2021/08/20 00:15:31;;;;;;;5.30;2.72;;;;;;;15.66;79.40;101260.78;4981357;28;20046;-74
2021/08/20 00:17:57;;;;;;;6.43;2.85;;;;;;;15.58;79.67;101255.66;5016102;28;20038;-74
2021/08/20 00:20:23;;;;;;;4.70;3.08;;;;;;;15.57;79.74;101264.47;5003010;28;20042;-74
2021/08/20 00:22:49;;;;;;;10.18;2.72;;;;;;;15.50;80.06;101266.97;4999408;28;20064;-74
2021/08/20 00:25:15;;;;;;;6.45;3.17;;;;;;;15.48;80.29;101262.91;4999546;28;20038;-74
2021/08/20 00:27:40;;;;;;;5.03;3.25;;;;;;;15.50;80.18;101272.22;5003551;28;20045;-74
2021/08/20 00:30:09;;;;;;;4.60;3.35;;;;;;;15.43;80.34;101267.88;4983633;28;20091;-74
2021/08/20 00:32:36;;;;;;;4.70;3.13;;;;;;;15.41;80.51;101272.44;4994718;28;20081;-75
2021/08/20 00:35:03;;;;;;;5.35;2.75;;;;;;;15.41;80.61;101280.28;4995485;28;20034;-75
2021/08/20 00:37:28;;;;;;;4.82;2.63;;;;;;;15.41;80.71;101282.88;4976880;28;20069;-74
2021/08/20 00:39:54;;;;;;;3.90;2.58;;;;;;;15.40;80.73;101284.69;5002532;28;20037;-74
2021/08/20 00:42:22;;;;;;;4.53;3.08;;;;;;;15.41;80.74;101286.34;4997824;28;20037;-75
2021/08/20 00:44:47;;;;;;;5.47;3.17;;;;;;;15.40;80.89;101282.09;5011357;28;20026;-75
2021/08/20 00:47:13;;;;;;;8.85;3.72;;;;;;;15.51;80.50;101286.88;4995126;28;20037;-75
2021/08/20 00:49:38;;;;;;;4.95;3.33;;;;;;;15.47;80.95;101284.81;4982095;28;20033;-74
2021/08/20 00:52:04;;;;;;;6.60;2.85;;;;;;;15.47;80.67;101290.84;4988940;28;20038;-74
2021/08/20 00:54:30;;;;;;;8.13;4.03;;;;;;;15.48;80.80;101283.81;4998866;28;20421;-74
2021/08/20 00:56:57;;;;;;;6.13;3.28;;;;;;;15.42;81.05;101289.75;4989419;28;20034;-75
2021/08/20 00:59:26;;;;;;;6.85;3.40;;;;;;;15.38;81.41;101287.47;5012038;28;20041;-74
2021/08/20 01:01:51;;;;;;;5.25;3.95;;;;;;;15.37;81.42;101285.88;5003683;28;20034;-75
2021/08/20 01:04:17;;;;;;;10.00;3.78;;;;;;;15.40;81.47;101287.31;4980112;28;20587;-74
2021/08/20 01:06:43;;;;;;;4.82;3.40;;;;;;;15.38;81.45;101282.25;4984352;28;20066;-74
2021/08/20 01:09:10;;;;;;;7.65;4.13;;;;;;;15.34;81.73;101282.78;4992278;28;20073;-75
2021/08/20 01:11:36;;;;;;;5.85;3.50;;;;;;;15.30;81.86;101279.72;4980162;28;20569;-74
2021/08/20 01:14:03;;;;;;;6.57;4.35;;;;;;;15.30;81.46;101277.09;5006039;28;20080;-75
2021/08/20 01:16:30;;;;;;;6.15;3.60;;;;;;;15.29;81.78;101280.69;4984649;28;20039;-75
2021/08/20 01:18:56;;;;;;;6.30;4.15;;;;;;;15.26;81.97;101288.91;4991829;28;20124;-74
2021/08/20 01:21:23;;;;;;;6.40;4.00;;;;;;;15.25;81.99;101287.25;4986316;28;20338;-74
2021/08/20 01:23:54;;;;;;;9.45;5.13;;;;;;;15.25;81.74;101289.06;4978009;28;20096;-74
2021/08/20 01:26:21;;;;;;;8.25;4.80;;;;;;;15.24;81.53;101290.88;4998556;28;20056;-74
2021/08/20 01:28:47;;;;;;;11.15;4.70;;;;;;;15.28;81.50;101286.13;5007250;28;20033;-74
2021/08/20 01:31:15;;;;;;;7.50;3.80;;;;;;;15.19;82.09;101288.75;4996167;28;20297;-73
2021/08/20 01:33:41;;;;;;;7.93;4.90;;;;;;;15.16;82.12;101288.31;4986178;28;20125;-75
2021/08/20 01:36:10;;;;;;;8.70;4.05;;;;;;;15.13;82.14;101292.09;4971638;28;20022;-75
2021/08/20 01:38:48;;;;;;;8.55;4.10;;;;;;;15.11;82.31;101290.63;4993339;28;20188;-75
2021/08/20 01:41:13;;;;;;;6.10;3.60;;;;;;;15.11;82.13;101298.47;4991519;28;20091;-75
2021/08/20 01:43:39;;;;;;;9.57;4.53;;;;;;;15.12;82.04;101297.47;4985258;28;20786;-74
2021/08/20 01:46:05;;;;;;;8.32;4.07;;;;;;;15.09;81.95;101293.44;5002050;28;20377;-75
2021/08/20 01:48:30;;;;;;;7.70;4.43;;;;;;;15.07;81.80;101292.78;4963153;28;20037;-74
2021/08/20 01:50:56;;;;;;;7.63;4.28;;;;;;;15.07;81.96;101292.78;5005349;28;20029;-75
2021/08/20 01:53:22;;;;;;;8.55;4.35;;;;;;;15.06;81.98;101295.56;4982306;28;20034;-74
2021/08/20 01:55:50;;;;;;;6.70;4.35;;;;;;;15.03;81.94;101290.69;4985792;28;20066;-74
2021/08/20 01:58:16;;;;;;;8.27;4.53;;;;;;;14.98;82.11;101292.00;4998188;28;20520;-75
2021/08/20 02:00:42;;;;;;;8.02;4.80;;;;;;;14.96;82.14;101296.59;4995854;28;20030;-75
2021/08/20 02:03:10;;;;;;;9.50;4.88;;;;;;;14.95;82.17;101302.78;4979589;28;20068;-75
2021/08/20 02:05:36;;;;;;;6.05;4.28;;;;;;;14.94;82.10;101300.38;4992919;28;20026;-75
2021/08/20 02:08:03;;;;;;;7.20;5.07;;;;;;;14.95;82.11;101304.59;4998192;28;20477;-75
2021/08/20 02:10:29;;;;;;;7.68;5.65;;;;;;;14.87;82.11;101297.63;4996257;28;20038;-75
2021/08/20 02:12:55;;;;;;;8.70;5.93;;;;;;;14.83;82.36;101301.56;4989387;28;20113;-75
2021/08/20 02:15:26;;;;;;;8.90;5.35;;;;;;;14.78;82.58;101304.69;4988309;28;20038;-75
2021/08/20 02:17:52;;;;;;;8.25;5.50;;;;;;;14.78;82.60;101306.50;5000103;28;20021;-75
2021/08/20 02:20:18;;;;;;;11.30;6.13;;;;;;;14.77;82.54;101308.28;4974933;28;20052;-75
2021/08/20 02:22:46;;;;;;;10.77;6.15;;;;;;;14.76;82.58;101305.84;4989822;28;20092;-74
2021/08/20 02:25:12;;;;;;;9.25;6.97;;;;;;;14.72;82.58;101305.38;4989444;28;20514;-75
2021/08/20 02:27:39;;;;;;;8.68;6.25;;;;;;;14.71;82.73;101305.53;4997678;28;20057;-75
2021/08/20 02:30:05;;;;;;;18.02;8.52;;;;;;;14.72;82.11;101302.75;4997845;28;20436;-74
2021/08/20 02:32:39;;;;;;;11.35;6.93;;;;;;;14.67;82.25;101305.06;4974212;28;20044;-75
2021/08/20 02:35:04;;;;;;;7.90;5.60;;;;;;;14.62;82.50;101304.78;5000019;28;20034;-75
2021/08/20 02:37:30;;;;;;;16.92;6.47;;;;;;;14.62;82.51;101301.34;4988804;28;20314;-75
2021/08/20 02:39:55;;;;;;;10.43;6.43;;;;;;;14.63;82.47;101305.59;5000636;28;20045;-75
2021/08/20 02:42:21;;;;;;;9.45;5.03;;;;;;;14.64;82.41;101304.63;4999613;28;20031;-75
2021/08/20 02:44:46;;;;;;;8.38;5.43;;;;;;;14.66;82.22;101297.44;4989736;28;20443;-75
2021/08/20 02:47:12;;;;;;;10.63;6.03;;;;;;;14.71;81.94;101302.94;4988206;28;20483;-75
2021/08/20 02:49:38;;;;;;;10.13;5.95;;;;;;;14.67;82.00;101297.22;4984278;28;20284;-75
2021/08/20 02:52:03;;;;;;;9.73;5.10;;;;;;;14.65;82.13;101298.41;4986154;28;20038;-75
2021/08/20 02:54:34;;;;;;;10.80;5.38;;;;;;;14.64;82.15;101299.41;4973890;28;20034;-75
2021/08/20 02:56:59;;;;;;;9.40;5.57;;;;;;;14.67;82.15;101299.03;5000438;28;20034;-74
2021/08/20 02:59:26;;;;;;;7.43;5.22;;;;;;;14.66;81.63;101300.84;4988594;28;20388;-75
2021/08/20 03:01:55;;;;;;;7.78;5.63;;;;;;;14.63;81.68;101308.19;4988904;28;20030;-75
2021/08/20 03:04:21;;;;;;;7.80;4.93;;;;;;;14.62;81.70;101301.34;4982424;28;20369;-75
2021/08/20 03:06:46;;;;;;;6.18;4.43;;;;;;;14.59;81.70;101299.91;4986423;28;20041;-75
2021/08/20 03:09:24;;;;;;;11.75;5.43;;;;;;;14.60;81.68;101299.72;4987206;28;20036;-75
2021/08/20 03:11:50;;;;;;;8.43;5.15;;;;;;;14.61;81.05;101303.16;4971430;28;20038;-75
2021/08/20 03:14:16;;;;;;;7.32;4.47;;;;;;;14.59;81.31;101300.69;4985217;28;20042;-75
2021/08/20 03:16:43;;;;;;;7.15;4.72;;;;;;;14.58;81.32;101304.31;4992156;28;20535;-75
2021/08/20 03:19:09;;;;;;;9.18;4.53;;;;;;;14.57;81.01;101297.44;4970144;28;20311;-75
2021/08/20 03:21:38;;;;;;;7.70;4.95;;;;;;;14.57;81.14;101310.50;4979924;28;20124;-75
2021/08/20 03:24:04;;;;;;;6.93;4.32;;;;;;;14.56;81.40;101311.47;4988909;28;20455;-75
2021/08/20 03:26:33;;;;;;;7.20;4.10;;;;;;;14.56;81.32;101308.84;4975463;28;20088;-75
2021/08/20 03:29:01;;;;;;;10.02;4.75;;;;;;;14.56;81.27;101302.81;5002507;28;20034;-75
2021/08/20 03:31:28;;;;;;;7.47;5.07;;;;;;;14.54;81.35;101315.22;4977927;28;20037;-75
2021/08/20 03:33:54;;;;;;;7.28;4.82;;;;;;;14.53;81.53;101305.78;4965652;28;20026;-75
2021/08/20 03:36:24;;;;;;;6.90;4.40;;;;;;;14.52;81.67;101314.56;4987295;28;20038;-74
2021/08/20 03:38:53;;;;;;;;;;;;;;;14.52;81.72;101311.97;5001920;28;20100;-75
2021/08/20 03:41:22;;;;;;;9.13;6.10;;;;;;;14.49;81.85;101307.09;5001026;28;19924;-74
2021/08/20 03:44:05;;;;;;;10.13;5.78;;;;;;;14.49;81.64;101315.72;4988134;28;20041;-75
2021/08/20 03:46:37;;;;;;;7.50;5.70;;;;;;;14.47;82.30;101304.66;4987309;28;20056;-75
2021/08/20 03:49:03;;;;;;;9.65;5.30;;;;;;;14.47;82.12;101307.25;4965555;28;20041;-75
2021/08/20 03:51:29;;;;;;;8.25;5.72;;;;;;;14.49;81.87;101313.13;4992025;28;20040;-75
2021/08/20 03:53:55;;;;;;;8.38;5.40;;;;;;;14.51;81.87;101311.16;4991728;28;20026;-75
2021/08/20 03:56:21;;;;;;;12.07;5.38;;;;;;;14.51;81.99;101311.16;4990840;28;20057;-75
2021/08/20 03:59:16;;;;;;;8.23;5.35;;;;;;;14.51;82.28;101313.75;4996113;28;20546;-75
2021/08/20 04:01:41;;;;;;;10.35;5.53;;;;;;;14.51;82.54;101316.38;4973877;28;20034;-75
2021/08/20 04:04:07;;;;;;;10.48;5.63;;;;;;;14.50;82.45;101322.56;4976821;28;20319;-75
2021/08/20 04:06:40;;;;;;;10.15;6.22;;;;;;;14.48;82.38;101319.31;4978649;28;20434;-75
2021/08/20 04:09:06;;;;;;;11.27;5.80;;;;;;;14.48;82.61;101318.50;4982591;28;20513;-75
2021/08/20 04:11:55;;;;;;;17.42;7.82;;;;;;;14.48;82.33;101316.69;4988325;28;20121;-74
2021/08/20 04:14:28;;;;;;;11.55;7.75;;;;;;;14.52;82.45;101328.44;4979853;28;20439;-74
2021/08/20 04:16:55;;;;;;;17.27;7.15;;;;;;;14.49;82.55;101331.38;4988739;28;20038;-75
2021/08/20 04:19:20;;;;;;;12.27;7.10;;;;;;;14.50;82.79;101324.38;4991694;28;20042;-75
2021/08/20 04:21:46;;;;;;;13.43;7.82;;;;;;;14.49;83.01;101328.78;4983927;28;20097;-75
2021/08/20 04:24:15;;;;;;;17.08;7.45;;;;;;;14.49;83.12;101317.53;4967181;28;20338;-75
2021/08/20 04:26:42;;;;;;;12.45;6.78;;;;;;;14.52;82.93;101322.41;4991859;28;20041;-75
2021/08/20 04:29:13;;;;;;;15.63;6.93;;;;;;;14.53;83.44;101321.44;4980799;28;20076;-75
2021/08/20 04:31:57;;;;;;;13.90;7.10;;;;;;;14.56;83.42;101318.47;4999674;28;20242;-74
2021/08/20 04:34:41;;;;;;;16.92;7.97;;;;;;;14.58;83.22;101322.56;4999645;28;20133;-75
2021/08/20 04:37:33;;;;;;;12.82;6.82;;;;;;;14.56;83.44;101323.69;5003369;28;20083;-75
2021/08/20 04:40:17;;;;;;;13.30;7.18;;;;;;;14.55;83.36;101322.06;4998350;28;20049;-75
2021/08/20 04:43:07;;;;;;;12.30;6.68;;;;;;;14.55;83.26;101325.47;4988551;28;20026;-75
2021/08/20 04:45:53;;;;;;;11.02;5.88;;;;;;;14.57;83.16;101328.75;4957384;28;20040;-75
2021/08/20 04:48:44;;;;;;;11.25;6.80;;;;;;;14.60;83.28;101331.03;4985319;28;20377;-75
2021/08/20 04:51:33;;;;;;;13.30;6.50;;;;;;;14.62;83.32;101332.66;4968092;28;20503;-75
2021/08/20 04:54:21;;;;;;;15.15;7.32;;;;;;;14.64;83.29;101335.94;4991633;28;20057;-75
2021/08/20 04:56:53;;;;;;;14.40;7.55;;;;;;;14.65;83.32;101335.75;4995326;28;20067;-75
2021/08/20 04:59:18;;;;;;;14.45;6.53;;;;;;;14.67;83.48;101330.34;4990056;28;20029;-75
2021/08/20 05:01:44;;;;;;;13.27;7.45;;;;;;;14.74;83.24;101333.91;4965004;28;20038;-75
2021/08/20 05:04:09;;;;;;;14.52;8.35;;;;;;;14.75;83.76;101335.56;4985019;28;20045;-75
2021/08/20 05:06:37;;;;;;;15.52;7.20;;;;;;;14.75;84.08;101338.16;4991745;28;20045;-75
2021/08/20 05:09:03;;;;;;;14.60;8.70;;;;;;;14.76;83.96;101329.34;4996644;28;20044;-75
2021/08/20 05:11:29;;;;;;;17.77;8.05;;;;;;;14.81;83.91;101331.47;4997314;28;20484;-75
2021/08/20 05:13:55;;;;;;;12.27;6.95;;;;;;;14.82;84.01;101333.88;4986849;28;20050;-75
2021/08/20 05:16:21;;;;;;;19.20;9.20;;;;;;;14.88;84.09;101337.59;4981422;28;20665;-75
2021/08/20 05:18:46;;;;;;;17.40;9.35;;;;;;;14.93;84.32;101335.28;4980355;28;20076;-75
2021/08/20 05:21:12;;;;;;;18.98;7.88;;;;;;;14.91;84.22;101338.06;4989171;28;20038;-75
2021/08/20 05:23:37;;;;;;;21.67;9.25;;;;;;;14.94;84.29;101344.78;4988116;28;20034;-74
2021/08/20 05:26:03;;;;;;;20.60;9.18;;;;;;;14.95;84.38;101341.97;5005649;28;20044;-74
2021/08/20 05:28:28;;;;;;;18.10;9.63;;;;;;;14.97;84.09;101342.63;5006300;28;20495;-74
2021/08/20 05:30:53;;;;;;;14.02;7.40;;;;;;;15.01;84.33;101339.66;4981777;28;20034;-75
2021/08/20 05:33:19;;;;;;;20.73;8.45;;;;;;;15.04;84.22;101344.53;5009577;28;20048;-75
2021/08/20 05:35:47;;;;;;;20.52;9.07;;;;;;;15.06;84.32;101345.19;4993319;28;20041;-74
2021/08/20 05:38:13;;;;;;;23.48;10.75;;;;;;;15.15;84.10;101352.00;4974984;28;20084;-75
2021/08/20 05:40:39;;;;;;;18.23;9.07;;;;;;;15.14;84.47;101347.75;4984303;28;20545;-75
2021/08/20 05:43:05;;;;;;;18.05;8.52;;;;;;;15.15;84.37;101352.78;4994052;28;20034;-74
2021/08/20 05:45:36;;;;;;;18.98;9.55;;;;;;;15.17;84.28;101345.59;4979199;28;20030;-75
2021/08/20 05:48:02;;;;;;;26.35;9.98;;;;;;;15.19;84.36;101359.28;4995338;28;20030;-75
2021/08/20 05:50:27;;;;;;;25.17;10.07;;;;;;;15.33;84.31;101346.47;4997592;28;21034;-74
2021/08/20 05:52:53;;;;;;;17.48;8.50;;;;;;;15.34;84.35;101348.91;5005762;28;20079;-75
2021/08/20 05:55:18;;;;;;;15.23;8.38;;;;;;;15.33;84.51;101352.53;4989976;28;20388;-74
2021/08/20 05:57:44;;;;;;;21.40;10.18;;;;;;;15.36;84.42;101351.34;5005329;28;20034;-75
2021/08/20 06:00:10;;;;;;;24.05;11.45;;;;;;;15.45;83.86;101352.94;4984585;28;20065;-75
2021/08/20 06:02:40;;;;;;;21.00;9.85;;;;;;;15.47;83.99;101365.81;5005156;28;20052;-75
2021/08/20 06:05:06;;;;;;;23.67;10.82;;;;;;;15.52;84.34;101358.25;4993419;28;20029;-74
2021/08/20 06:07:32;;;;;;;20.88;9.80;;;;;;;15.59;84.22;101364.41;4971605;28;20141;-75
2021/08/20 06:09:57;;;;;;;17.88;9.90;;;;;;;15.80;83.45;101361.16;5005607;28;20049;-74
2021/08/20 06:12:24;;;;;;;20.23;9.43;;;;;;;15.83;83.31;101368.66;4998859;28;20037;-74
2021/08/20 06:14:49;;;;;;;20.30;9.32;;;;;;;15.77;83.68;101369.38;4990432;28;20422;-74
2021/08/20 06:17:15;;;;;;;19.10;9.90;;;;;;;15.81;83.84;101364.63;4977602;28;20038;-75
2021/08/20 06:19:40;;;;;;;18.30;9.25;;;;;;;15.86;83.72;101372.72;5008133;28;20045;-74
2021/08/20 06:22:06;;;;;;;16.30;9.00;;;;;;;15.85;84.10;101364.06;5011845;28;20037;-74
2021/08/20 06:24:31;;;;;;;21.60;10.43;;;;;;;15.92;83.60;101375.44;5013065;28;20033;-74
2021/08/20 06:26:57;;;;;;;18.52;10.25;;;;;;;15.91;83.98;101373.81;4996085;28;20030;-75
2021/08/20 06:29:22;;;;;;;15.20;8.25;;;;;;;15.93;83.93;101371.84;5004794;28;20046;-75
2021/08/20 06:31:50;;;;;;;14.85;8.05;;;;;;;15.92;84.02;101372.03;4986918;28;20416;-75
2021/08/20 06:34:17;;;;;;;16.52;8.98;;;;;;;16.13;83.36;101372.16;4979685;28;20174;-74
2021/08/20 06:36:44;;;;;;;20.10;10.88;;;;;;;16.29;82.37;101375.59;5005837;28;20033;-75
2021/08/20 06:39:10;;;;;;;17.77;10.38;;;;;;;16.30;82.45;101379.84;5004604;28;20125;-75
2021/08/20 06:41:36;;;;;;;20.52;10.75;;;;;;;16.57;81.62;101380.19;4987987;28;20042;-76
2021/08/20 06:44:02;;;;;;;19.30;8.20;;;;;;;16.68;81.41;101385.78;4985448;28;20513;-75
2021/08/20 06:46:27;;;;;;;18.90;8.65;;;;;;;16.86;80.84;101379.41;4999534;28;20050;-74
2021/08/20 06:48:53;;;;;;;14.15;7.93;;;;;;;16.99;80.57;101374.31;4992990;28;20045;-75
2021/08/20 06:51:18;;;;;;;18.05;9.30;;;;;;;17.00;80.19;101377.72;5000385;28;20095;-75
2021/08/20 06:53:43;;;;;;;22.77;11.02;;;;;;;17.05;79.82;101380.63;5008845;28;20096;-75
2021/08/20 06:56:09;;;;;;;18.95;8.18;;;;;;;17.05;80.16;101383.25;4980086;28;20053;-75
2021/08/20 06:58:34;;;;;;;16.40;7.53;;;;;;;17.01;80.61;101385.41;5004993;28;20041;-75
2021/08/20 07:01:00;;;;;;;17.05;8.77;;;;;;;17.01;80.80;101384.59;4998958;28;20036;-75
2021/08/20 07:03:25;;;;;;;12.43;7.43;;;;;;;16.93;81.04;101390.75;5013966;28;20037;-75
2021/08/20 07:05:51;;;;;;;12.20;7.32;;;;;;;16.93;80.52;101394.19;4998377;28;20479;-76
2021/08/20 07:08:16;;;;;;;15.55;7.82;;;;;;;17.06;80.23;101390.91;5006786;28;20038;-75
2021/08/20 07:10:42;;;;;;;15.35;8.40;;;;;;;17.13;80.76;101388.38;5000409;28;20527;-75
2021/08/20 07:13:08;;;;;;;15.20;9.02;;;;;;;17.15;80.28;101389.00;5009839;28;20285;-75
2021/08/20 07:15:34;;;;;;;14.10;7.78;;;;;;;17.19;80.32;101387.63;4997235;28;20037;-75
2021/08/20 07:17:59;;;;;;;12.90;6.70;;;;;;;17.22;80.21;101396.94;5001671;28;20052;-75
2021/08/20 07:20:25;;;;;;;16.35;7.85;;;;;;;17.23;79.33;101386.25;5003135;28;20537;-75
2021/08/20 07:22:50;;;;;;;16.02;7.45;;;;;;;17.33;79.26;101391.19;4993206;28;20042;-75
2021/08/20 07:25:16;;;;;;;12.88;7.60;;;;;;;17.46;79.14;101399.19;5006553;28;20045;-75
2021/08/20 07:27:41;;;;;;;12.52;6.57;;;;;;;17.55;78.79;101401.69;5003630;28;20093;-75
2021/08/20 07:30:07;;;;;;;13.18;6.95;;;;;;;17.45;78.97;101402.00;5013543;28;20411;-75
2021/08/20 07:32:33;;;;;;;12.23;6.38;;;;;;;17.48;79.26;101404.25;5004026;28;20173;-75
2021/08/20 07:34:59;;;;;;;12.20;6.70;;;;;;;17.56;78.81;101400.69;5003608;28;20033;-75
2021/08/20 07:37:25;;;;;;;14.05;6.65;;;;;;;17.71;78.75;101409.31;4979742;28;20040;-75
2021/08/20 07:39:50;;;;;;;12.77;5.75;;;;;;;18.02;77.53;101397.66;5002935;28;20384;-75
2021/08/20 07:42:18;;;;;;;14.35;7.25;;;;;;;18.40;75.99;101406.00;4968995;28;20049;-75
2021/08/20 07:44:44;;;;;;;10.95;5.55;;;;;;;18.60;75.67;101398.22;5007095;28;20120;-76
2021/08/20 07:47:09;;;;;;;12.70;5.28;;;;;;;18.70;74.97;101395.22;5007146;28;20113;-75
2021/08/20 07:49:35;;;;;;;11.85;5.30;;;;;;;18.79;74.84;101395.91;4987997;28;21075;-75
2021/08/20 07:52:01;;;;;;;8.80;4.90;;;;;;;19.17;73.76;101384.91;4986287;28;20749;-76
2021/08/20 07:54:26;;;;;;;9.35;5.07;;;;;;;19.27;73.66;101388.00;5003222;28;20029;-76
2021/08/20 07:56:52;;;;;;;7.38;4.47;;;;;;;19.39;72.87;101396.09;4984808;28;20042;-75
2021/08/20 07:59:17;;;;;;;9.65;4.13;;;;;;;19.42;73.51;101393.06;4978623;28;20042;-75
2021/08/20 08:01:43;;;;;;;9.95;3.95;;;;;;;19.35;72.18;101400.13;4991262;28;20406;-76
2021/08/20 08:04:08;;;;;;;6.72;3.83;;;;;;;19.59;71.62;101398.72;5012866;28;20029;-75
2021/08/20 08:06:35;;;;;;;10.75;4.20;;;;;;;20.37;68.70;101400.75;4979924;28;20137;-75
2021/08/20 08:09:01;;;;;;;7.95;4.20;;;;;;;20.18;69.11;101397.13;5003933;28;20099;-76
2021/08/20 08:11:31;;;;;;;7.82;4.50;;;;;;;20.02;69.70;101396.56;4999359;28;20152;-76
2021/08/20 08:14:03;;;;;;;6.57;4.38;;;;;;;19.72;70.59;101397.94;4993004;28;20034;-76
2021/08/20 08:16:30;;;;;;;13.32;4.53;;;;;;;19.59;69.77;101396.09;4991485;28;20647;-75
2021/08/20 08:18:56;;;;;;;6.13;3.25;;;;;;;19.64;70.40;101396.31;4985090;28;20037;-76
2021/08/20 08:21:21;;;;;;;7.43;3.80;;;;;;;19.71;70.86;101398.97;4998280;28;20037;-75
2021/08/20 08:23:47;;;;;;;5.78;3.45;;;;;;;19.69;71.20;101398.34;4979969;28;20476;-76
2021/08/20 08:26:12;;;;;;;6.50;3.50;;;;;;;19.62;70.93;101400.97;4984063;28;20534;-76
2021/08/20 08:28:37;;;;;;;5.70;3.03;;;;;;;19.63;71.30;101400.78;4997920;28;20083;-76
2021/08/20 08:31:03;;;;;;;11.38;3.33;;;;;;;19.39;72.56;101399.53;5012993;28;20049;-76
2021/08/20 08:33:28;;;;;;;4.85;2.85;;;;;;;19.19;73.12;101407.41;5011116;28;20084;-76
2021/08/20 08:35:54;;;;;;;7.63;3.70;;;;;;;19.08;74.29;101418.47;4994028;28;20088;-77
2021/08/20 08:38:19;;;;;;;8.43;4.88;;;;;;;19.02;75.71;101422.72;4975937;28;20041;-76
2021/08/20 08:40:47;;;;;;;7.63;4.80;;;;;;;18.83;76.98;101426.03;4989457;28;20029;-76
2021/08/20 08:43:14;;;;;;;9.07;4.70;;;;;;;18.70;77.58;101428.59;5015016;28;20048;-76
2021/08/20 08:45:41;;;;;;;7.63;4.45;;;;;;;18.62;78.93;101430.34;4995910;28;20517;-76
2021/08/20 08:48:10;;;;;;;9.25;5.65;;;;;;;18.55;80.01;101426.88;4982771;28;20034;-77
2021/08/20 08:50:36;;;;;;;11.05;5.82;;;;;;;18.53;80.21;101435.97;4987283;28;20041;-76
2021/08/20 08:53:03;;;;;;;12.50;6.45;;;;;;;18.43;80.13;101431.06;4986793;28;20145;-77
2021/08/20 08:55:28;;;;;;;12.82;6.65;;;;;;;18.38;80.43;101434.25;4996492;28;20037;-76
2021/08/20 08:57:54;;;;;;;10.90;6.50;;;;;;;18.43;81.13;101437.13;4986494;28;20125;-76
2021/08/20 09:00:37;;;;;;;11.75;6.20;;;;;;;18.40;81.67;101434.06;4988775;28;20636;-75
2021/08/20 09:03:03;;;;;;;;;;;;;;;18.37;81.57;101435.28;5000396;28;20034;-76
2021/08/20 09:05:46;;;;;;;9.00;5.55;;;;;;;18.42;81.01;101434.69;4998627;28;19918;-77
2021/08/20 09:08:23;;;;;;;14.63;5.03;;;;;;;18.59;81.14;101437.81;4997794;28;20150;-76
2021/08/20 09:11:13;;;;;;;8.98;5.07;;;;;;;18.84;81.04;101440.81;4979030;28;20430;-77
2021/08/20 09:13:39;;;;;;;10.07;5.15;;;;;;;19.03;80.11;101440.06;4985535;28;20091;-76
2021/08/20 09:16:12;;;;;;;8.88;4.72;;;;;;;18.98;80.51;101445.09;4982145;28;20041;-76
2021/08/20 09:18:39;;;;;;;6.22;3.10;;;;;;;18.80;79.78;101444.81;5010776;28;20528;-77
2021/08/20 09:21:06;;;;;;;6.72;3.22;;;;;;;18.66;80.07;101452.59;4981461;28;20579;-77
2021/08/20 09:23:32;;;;;;;5.00;1.70;;;;;;;18.44;80.37;101443.16;4961410;28;20034;-77
2021/08/20 09:25:57;;;;;;;2.95;1.90;;;;;;;18.53;81.38;101449.09;5002405;28;20033;-76
2021/08/20 09:28:30;;;;;;;2.25;1.10;;;;;;;18.89;79.13;101437.59;4980222;28;20415;-77
2021/08/20 09:30:57;;;;;;;2.65;1.00;;;;;;;19.48;78.35;101431.72;5010929;28;20080;-77
2021/08/20 09:33:25;;;;;;;2.17;0.70;;;;;;;20.37;77.31;101438.41;4978849;28;20248;-77
2021/08/20 09:36:09;;;;;;;0.88;0.60;;;;;;;20.31;74.50;101444.50;4988934;28;20092;-77
2021/08/20 09:38:39;;;;;;;1.30;0.75;;;;;;;20.20;74.47;101440.66;4992192;28;20440;-77
2021/08/20 09:41:19;;;;;;;0.88;0.50;;;;;;;20.11;75.66;101438.44;5011587;28;20137;-77
2021/08/20 09:43:49;;;;;;;1.08;0.65;;;;;;;19.94;74.04;101445.94;4991548;28;20053;-76
2021/08/20 09:46:19;;;;;;;1.27;0.47;;;;;;;19.57;75.31;101441.03;5009943;28;20038;-78
2021/08/20 09:48:59;;;;;;;3.33;0.70;;;;;;;19.56;75.55;101444.66;4983873;28;20038;-77
2021/08/20 09:51:30;;;;;;;1.25;0.68;;;;;;;19.54;76.24;101440.63;5001067;28;20170;-78
2021/08/20 09:54:09;;;;;;;0.93;0.73;;;;;;;19.43;75.42;101442.00;4981077;28;20337;-77
2021/08/20 09:56:36;;;;;;;1.35;1.00;;;;;;;19.46;75.69;101444.25;5009434;28;20060;-77
2021/08/20 09:59:07;;;;;;;1.15;0.90;;;;;;;19.53;75.35;101446.88;5005166;28;20420;-77
2021/08/20 10:01:35;;;;;;;0.95;0.70;;;;;;;19.62;76.16;101448.31;4982171;28;20044;-77
2021/08/20 10:04:06;;;;;;;1.65;0.70;;;;;;;19.68;75.44;101441.44;5009214;28;20861;-77
2021/08/20 10:06:40;;;;;;;1.95;0.95;;;;;;;19.69;74.65;101440.44;4986817;28;20042;-77
2021/08/20 10:09:07;;;;;;;1.27;0.70;;;;;;;19.72;73.97;101442.66;4977033;28;20041;-77
2021/08/20 10:11:54;;;;;;;0.95;0.75;;;;;;;19.65;74.59;101440.84;5010134;28;20045;-77
2021/08/20 10:14:23;;;;;;;1.02;0.77;;;;;;;19.80;75.07;101434.63;4982298;28;20057;-77
2021/08/20 10:16:49;;;;;;;2.83;0.80;;;;;;;19.76;74.75;101444.72;5000179;28;20045;-76
2021/08/20 10:19:14;;;;;;;1.73;0.88;;;;;;;19.69;74.46;101438.63;4994597;28;20038;-77
2021/08/20 10:21:42;;;;;;;1.90;0.80;;;;;;;19.78;75.13;101442.72;5000256;28;20034;-77
2021/08/20 10:24:10;;;;;;;2.75;1.17;;;;;;;19.70;76.01;101442.06;4979069;28;20033;-76
2021/08/20 10:26:43;;;;;;;1.98;0.82;;;;;;;19.72;75.92;101445.28;5001932;28;20872;-76
2021/08/20 10:29:10;;;;;;;2.13;1.08;;;;;;;19.81;75.43;101447.56;4978275;28;20164;-77
2021/08/20 10:31:37;;;;;;;1.67;0.88;;;;;;;20.00;74.66;101445.97;4975094;28;20048;-77
2021/08/20 10:34:31;;;;;;;0.98;0.80;;;;;;;20.25;72.70;101445.34;4981772;28;20272;-77
2021/08/20 10:37:25;;;;;;;3.08;1.42;;;;;;;20.89;72.01;101441.16;5000397;28;20120;-76
2021/08/20 10:39:53;;;;;;;2.55;1.10;;;;;;;21.14;69.03;101440.44;5007305;28;20053;-76
2021/08/20 10:42:34;;;;;;;2.58;1.38;;;;;;;20.90;70.68;101439.31;5010089;28;20558;-77
2021/08/20 10:45:11;;;;;;;2.83;1.48;;;;;;;20.57;71.31;101440.22;5012276;28;20025;-78
2021/08/20 10:47:36;;;;;;;2.85;1.45;;;;;;;20.39;71.49;101436.38;4997284;28;20519;-78
2021/08/20 10:50:35;;;;;;;2.42;1.50;;;;;;;20.36;71.33;101434.19;5000534;28;20366;-76
2021/08/20 10:53:19;;;;;;;3.33;1.75;;;;;;;20.41;72.26;101439.63;5004463;28;20041;-77
2021/08/20 10:55:44;;;;;;;2.75;1.95;;;;;;;20.66;70.97;101433.72;5011055;28;20121;-78
2021/08/20 10:58:12;;;;;;;2.88;2.03;;;;;;;20.66;70.39;101438.19;4999390;28;20053;-77
2021/08/20 11:00:39;;;;;;;2.38;1.98;;;;;;;20.66;70.05;101443.44;4989053;28;20030;-76
2021/08/20 11:03:08;;;;;;;2.03;1.48;;;;;;;20.86;70.29;101430.22;5001739;28;20396;-78
2021/08/20 11:05:47;;;;;;;3.95;2.17;;;;;;;20.91;70.11;101425.94;4991872;28;20128;-77
2021/08/20 11:08:28;;;;;;;3.10;2.80;;;;;;;20.90;68.72;101431.41;4999269;28;20045;-78
2021/08/20 11:10:58;;;;;;;5.18;2.50;;;;;;;20.95;68.59;101428.97;4997990;28;20049;-77
2021/08/20 11:13:24;;;;;;;4.20;3.00;;;;;;;21.00;69.54;101429.13;5009408;28;20037;-77
2021/08/20 11:15:51;;;;;;;6.55;3.17;;;;;;;21.03;68.36;101435.81;4998704;28;20084;-77
2021/08/20 11:18:38;;;;;;;4.75;3.60;;;;;;;21.06;68.28;101428.28;4986916;28;20034;-77
2021/08/20 11:21:04;;;;;;;3.70;3.30;;;;;;;21.23;67.80;101431.25;4980756;28;20763;-77
2021/08/20 11:23:31;;;;;;;5.38;3.85;;;;;;;21.45;67.95;101438.84;4995983;28;20037;-76
2021/08/20 11:25:57;;;;;;;6.68;3.85;;;;;;;21.72;68.09;101434.22;5010331;28;20095;-78
2021/08/20 11:28:27;;;;;;;6.45;4.22;;;;;;;21.69;66.80;101437.28;4996553;28;20545;-77